Flight Track Log - Related Links

Times and Time Zones

All times are in EDT time to prevent confusion due to time zone crossing. See the N779NC flight status page for this flight to view local times or setup timezone preferences in your user account.

Time Position Orientation Groundspeed Altitude Reporting Facility
EDT Latitude Longitude Course Direction KTS MPH feet Rate Location/Type
Sat 02:10:45 PM 33.6139 -84.5128 128° Southeast 410 472 3,400  Level Atlanta Center
Sat 02:11:45 PM 33.5717 -84.5847 235° Southwest 344 396 5,400 2,050 Climbing Atlanta Center
Sat 02:12:00 PM 33.3412 -84.2990 160° South  Level FlightAware Approximate
Sat 02:12:45 PM 33.5008 -84.5844 180° South 286 329 7,500  Level Atlanta Center
Sat 02:13:00 PM 33.2355 -84.2614 163° South  Level FlightAware Approximate
Sat 02:13:45 PM 33.4342 -84.5342 148° Southeast 296 341 10,100  Level Atlanta Center
Sat 02:14:00 PM 33.1352 -84.2249 163° South  Level FlightAware Approximate
Sat 02:14:45 PM 33.3739 -84.4592 134° Southeast 296 341 11,800  Level Atlanta Center
Sat 02:15:00 PM 33.0461 -84.1690 128° Southeast  Level FlightAware Approximate
Sat 02:15:45 PM 33.3117 -84.3794 133° Southeast 316 364 13,600  Level Atlanta Center
Sat 02:16:00 PM 32.9809 -84.0711 128° Southeast  Level FlightAware Approximate
Sat 02:16:45 PM 33.2492 -84.2922 131° Southeast 339 390 15,900  Level Atlanta Center
Sat 02:17:45 PM 33.1908 -84.2025 128° Southeast 346 398 16,900 1,450 Climbing Atlanta Center
Sat 02:18:45 PM 33.1325 -84.1083 126° Southeast 352 405 18,800 1,700 Climbing Atlanta Center
Sat 02:19:45 PM 33.0700 -84.0117 128° Southeast 365 420 20,300 1,100 Climbing Atlanta Center
Sat 02:20:45 PM 32.9928 -83.9250 137° Southeast 370 426 21,000 650 Climbing Atlanta Center
Sat 02:21:45 PM 32.9028 -83.8483 144° Southeast 379 436 21,600 600 Climbing Atlanta Center
Sat 02:22:45 PM 32.8025 -83.7669 146° Southeast 411 473 22,200 600 Climbing Atlanta Center
Sat 02:23:45 PM 32.7042 -83.6783 143° Southeast 433 498 22,800 400 Climbing Atlanta Center
Sat 02:24:45 PM 32.6369 -83.5431 121° Southeast 440 506 23,000 100 Climbing Atlanta Center
Sat 02:25:45 PM 32.5819 -83.4028 115° Southeast 458 527 23,000  Level Atlanta Center
Sat 02:26:45 PM 32.5581 -83.2478 100° East 458 527 23,000  Level Atlanta Center
Sat 02:27:45 PM 32.5467 -83.0925 95° East 463 533 23,000  Level Atlanta Center
Sat 02:28:45 PM 32.5450 -82.9178 91° East 468 539 23,000  Level Atlanta Center
Sat 02:29:45 PM 32.5519 -82.7647 87° East 468 539 23,000 -898 Level Atlanta Center
Sat 02:31:52 PM 32.4789 -82.4667 106° East 472 543 20,200 -2,021 Descending Jacksonville Center
Sat 02:32:52 PM 32.4408 -82.3339 109° East 448 516 16,700 -3,150 Descending Jacksonville Center
Sat 02:33:52 PM 32.4069 -82.2061 107° East 414 476 13,900 -2,550 Descending Jacksonville Center
Sat 02:34:52 PM 32.3706 -82.0733 108° East 389 448 11,600 -1,500 Descending Jacksonville Center
Sat 02:35:52 PM 32.3425 -81.9581 106° East 365 420 10,900 -650 Descending Jacksonville Center
Sat 02:36:52 PM 32.3231 -81.8575 103° East 354 407 10,300 -450 Descending Jacksonville Center
Sat 02:37:52 PM 32.3094 -81.7250 97° East 360 414 10,000 -200 Descending Jacksonville Center
Sat 02:38:52 PM 32.3042 -81.6217 93° East 360 414 9,900 -700 Descending Jacksonville Center
Sat 02:39:52 PM 32.2947 -81.5039 95° East 336 387 8,600 -1,350 Descending Jacksonville Center
Sat 02:40:52 PM 32.2872 -81.4083 95° East 307 353 7,200 -1,750 Descending Jacksonville Center
Sat 02:41:52 PM 32.2736 -81.3200 100° East 301 346 5,100 -1,900 Descending Jacksonville Center
Sat 02:42:52 PM 32.2517 -81.2222 105° East 282 325 3,400 -1,700 Descending Jacksonville Center

Login

Don't have an account? Register now (free) for customized features, flight alerts, and more!